EDT,Max TemperatureF,Mean TemperatureF,Min TemperatureF,Max Dew PointF,MeanDew PointF,Min DewpointF,Max Humidity, Mean Humidity, Min Humidity, Max Sea Level PressureIn, Mean Sea Level PressureIn, Min Sea Level PressureIn, Max VisibilityMiles, Mean VisibilityMiles, Min VisibilityMiles, Max Wind SpeedMPH, Mean Wind SpeedMPH, Max Gust SpeedMPH,PrecipitationIn, CloudCover, Events, WindDirDegrees
2013-3-1,33,32,30,30,29,27,93,91,86,29.63,29.58,29.52,10,5,1,15,12,24,0.00,8,,356
2013-3-2,37,34,30,30,28,27,100,83,70,29.60,29.59,29.57,10,8,2,18,11,22,0.06,7,,333
2013-3-3,39,36,32,30,29,25,93,76,61,29.58,29.52,29.47,10,10,3,14,10,18,0.00,8,,322
2013-3-4,35,32,30,30,26,21,93,80,64,29.66,29.50,29.45,10,7,1,17,11,25,0.00,8,,313
2013-3-5,41,36,32,34,31,30,93,84,65,30.11,29.92,29.67,10,8,3,16,11,23,0.01,8,,5
2013-3-6,37,34,30,32,27,21,93,77,60,30.26,30.21,30.12,10,9,2,14,10,24,0.00,8,,39
2013-3-7,35,32,30,21,21,19,69,64,56,30.22,30.16,30.10,10,10,10,21,14,31,0.00,7,,28
2013-3-8,42,35,28,21,20,18,74,56,36,30.20,30.11,30.06,10,10,10,25,19,34,0.00,2,,19
2013-3-9,44,35,26,23,21,19,74,57,39,30.35,30.25,30.18,10,10,10,22,11,26,0.00,0,,24
2013-3-10,42,30,19,28,24,18,93,72,46,30.39,30.33,30.25,10,10,2,10,4,20,0.00,1,,165
2013-3-11,44,38,32,37,32,28,93,80,53,30.26,30.17,30.10,10,10,10,13,6,17,0.00,6,,187
2013-3-12,48,44,39,46,42,37,100,94,87,30.10,29.97,29.71,10,7,0,13,7,23,0.58,8,,171
2013-3-13,48,40,33,48,35,21,100,78,53,29.71,29.67,29.63,10,8,0,13,7,16,0.06,7,,322
2013-3-14,37,29,21,25,18,7,93,61,45,29.70,29.64,29.57,10,10,10,16,7,22,0.00,3,,273
2013-3-15,32,24,15,19,7,3,80,50,30,29.74,29.64,29.55,10,10,10,13,7,,0.00,2,,285
2013-3-16,32,24,17,25,11,5,93,58,32,29.85,29.74,29.57,10,10,1,16,6,22,0.00,2,,320
2013-3-17,26,20,15,10,2,-6,73,47,24,30.25,29.99,29.85,10,10,10,24,8,32,0.00,1,,311
2013-3-18,33,20,8,12,0,-6,67,40,22,30.39,30.31,30.24,10,10,10,14,4,16,0.00,0,,273
2013-3-19,26,24,21,21,19,12,93,81,55,30.25,29.99,29.66,10,3,0,20,6,24,0.01,7,,44
2013-3-20,33,26,19,23,18,16,93,74,48,29.67,29.59,29.53,10,8,0,24,11,29,0.09,5,,276
2013-3-21,39,28,17,23,13,7,93,58,26,29.71,29.64,29.57,10,10,10,9,4,16,0.02,0,,221
2013-3-22,37,29,21,18,13,10,68,52,33,29.60,29.57,29.53,10,10,10,16,9,25,0.00,2,,315
2013-3-23,37,30,23,23,18,12,69,56,41,29.59,29.50,29.42,10,10,10,22,11,32,0.00,2,,272
2013-3-24,42,36,30,25,22,19,75,56,42,29.75,29.69,29.58,10,10,10,18,10,29,0.00,5,,321
2013-3-25,42,34,26,28,25,21,86,64,42,29.74,29.67,29.58,10,10,10,14,8,22,0.00,7,,22
2013-3-26,46,38,30,27,23,21,70,56,39,29.68,29.60,29.55,10,10,10,16,12,26,0.00,4,,337
2013-3-27,42,36,30,37,30,23,93,78,60,29.84,29.73,29.67,10,10,9,16,8,20,0.11,6,,325
2013-3-28,51,42,33,34,31,27,93,71,38,29.92,29.88,29.84,10,10,10,15,8,22,0.00,6,,325
2013-3-29,51,44,37,34,30,28,81,60,41,29.96,29.93,29.91,10,10,10,14,6,21,0.00,5,,300
2013-3-30,51,38,26,30,20,10,93,51,22,30.04,29.98,29.95,10,10,10,16,4,20,0.00,0,,310
2013-3-31,53,38,24,34,20,12,80,49,24,30.08,30.00,29.82,10,10,10,13,3,23,0.00,0,,171